Time;durP1;ratioP1;P1;durP2;ratioP2;P2;SDS_P1;SDS_P2;PMS_P1;PMS_P2;Temp;Humidity;BMP_temperature;BMP_pressure;BME280_temperature;BME280_humidity;BME280_pressure;Samples;Min_cycle;Max_cycle;Signal;HPM_P1;HPM_P2
2022/08/29 00:00:12;;;;;;;;;1.00;1.00;;;;;23.80;48.11;101477.31;5055421;28;45649;-82
2022/08/29 00:02:38;;;;;;;;;1.00;1.00;;;;;23.78;48.08;101462.31;5055574;28;46094;-82
2022/08/29 00:05:05;;;;;;;;;1.00;1.00;;;;;23.71;48.37;101463.19;5057834;28;45449;-82
2022/08/29 00:07:30;;;;;;;;;2.00;1.00;;;;;23.66;48.70;101465.84;5058694;28;45386;-82
2022/08/29 00:09:56;;;;;;;;;1.00;1.00;;;;;23.66;48.93;101463.19;5043137;28;45543;-82
2022/08/29 00:12:22;;;;;;;;;1.25;1.25;;;;;23.66;48.62;101465.84;5064997;28;45319;-82
2022/08/29 00:14:47;;;;;;;;;1.00;1.00;;;;;23.63;48.58;101458.78;5061990;28;45248;-82
2022/08/29 00:17:13;;;;;;;;;1.00;1.00;;;;;23.61;49.24;101463.19;5058856;28;45168;-82
2022/08/29 00:19:38;;;;;;;;;1.75;1.75;;;;;23.54;49.18;101457.88;5059075;28;45832;-82
2022/08/29 00:22:04;;;;;;;;;0.00;0.00;;;;;23.56;49.17;101472.00;5057927;28;46493;-82
2022/08/29 00:24:30;;;;;;;;;1.50;1.50;;;;;23.50;48.94;101470.22;5058306;28;45276;-82
2022/08/29 00:26:55;;;;;;;;;1.00;1.00;;;;;23.45;49.41;101464.03;5058709;28;45430;-82
2022/08/29 00:29:21;;;;;;;;;3.00;1.00;;;;;23.47;49.67;101470.22;5058674;28;45434;-82
2022/08/29 00:31:47;;;;;;;;;1.00;1.00;;;;;23.45;49.11;101467.56;5040218;28;45586;-82
2022/08/29 00:34:12;;;;;;;;;1.75;1.75;;;;;23.44;49.54;101463.16;5058370;28;45272;-82
2022/08/29 00:36:38;;;;;;;;;2.00;1.00;;;;;23.44;49.22;101463.16;5060474;28;45338;-83
2022/08/29 00:39:04;;;;;;;;;1.00;0.00;;;;;23.46;49.70;101460.50;5060861;28;45540;-83
2022/08/29 00:41:29;;;;;;;;;1.00;0.00;;;;;23.46;49.74;101474.63;5059454;28;46088;-82
2022/08/29 00:43:55;;;;;;;;;1.25;1.00;;;;;23.50;49.28;101470.22;5059233;28;45423;-82
2022/08/29 00:46:39;;;;;;;;;1.00;1.00;;;;;23.53;49.27;101469.34;5058326;28;45505;-82
2022/08/29 00:49:10;;;;;;;;;3.75;1.00;;;;;23.54;49.28;101471.97;5057692;28;45411;-82
2022/08/29 00:51:37;;;;;;;;;1.50;1.00;;;;;23.57;49.32;101464.06;5039766;28;46549;-82
2022/08/29 00:54:08;;;;;;;;;1.00;1.00;;;;;23.57;49.16;101466.69;5057756;28;45375;-81
2022/08/29 00:56:40;;;;;;;;;1.00;1.00;;;;;23.57;49.32;101464.06;5057945;28;45411;-82
2022/08/29 00:59:23;;;;;;;;;1.00;1.00;;;;;23.56;48.80;101466.72;5058013;28;45349;-82
2022/08/29 01:01:49;;;;;;;;;1.00;1.00;;;;;23.52;48.76;101471.09;5063067;28;45389;-82
2022/08/29 01:04:15;;;;;;;;;1.00;1.00;;;;;23.48;48.95;101467.59;5042524;28;45355;-82
2022/08/29 01:06:42;;;;;;;;;2.50;0.50;;;;;23.46;49.11;101464.06;5059113;28;45268;-82
2022/08/29 01:09:09;;;;;;;;;3.00;1.00;;;;;23.51;49.20;101464.06;5057775;28;45225;-82
2022/08/29 01:14:22;;;;;;;;;1.00;1.00;;;;;23.49;48.94;101461.38;5057120;28;45736;-82
2022/08/29 01:16:49;;;;;;;;;0.50;0.50;;;;;23.48;49.39;101451.72;5057135;28;45344;-82
2022/08/29 01:19:43;;;;;;;;;0.25;0.25;;;;;23.48;49.68;101453.47;5057806;28;45469;-82
2022/08/29 01:22:36;;;;;;;;;2.00;2.00;;;;;23.46;49.54;101453.47;5057456;28;45363;-82
2022/08/29 01:25:07;;;;;;;;;2.00;1.00;;;;;23.49;48.81;101465.81;5040401;28;45470;-82
2022/08/29 01:27:36;;;;;;;;;4.00;2.25;;;;;23.45;49.15;101461.38;5065390;28;45225;-82
2022/08/29 01:30:04;;;;;;;;;2.00;0.75;;;;;23.42;49.33;101459.63;5060269;28;45486;-82
2022/08/29 01:32:30;;;;;;;;;1.00;1.00;;;;;23.37;49.06;101445.53;5057755;28;46036;-82
2022/08/29 01:34:55;;;;;;;;;1.75;1.25;;;;;23.37;49.54;101450.81;5039431;28;45332;-82
2022/08/29 01:37:21;;;;;;;;;0.75;0.75;;;;;23.33;49.40;101452.56;5057247;28;45405;-82
2022/08/29 01:39:47;;;;;;;;;1.25;1.00;;;;;23.33;49.74;101456.97;5057330;28;45498;-82
2022/08/29 01:42:19;;;;;;;;;2.00;0.00;;;;;23.28;49.73;101458.72;5057057;28;45278;-82
2022/08/29 01:44:54;;;;;;;;;2.75;0.00;;;;;23.27;49.67;101464.91;5056956;28;45555;-82
2022/08/29 01:47:21;;;;;;;;;4.00;1.25;;;;;23.22;50.08;101464.84;5057123;28;45403;-82
2022/08/29 01:49:47;;;;;;;;;1.00;1.00;;;;;23.20;50.06;101461.34;5043383;28;45448;-82
2022/08/29 01:52:13;;;;;;;;;2.75;1.00;;;;;23.11;50.26;101453.38;5043710;28;45496;-81
2022/08/29 01:54:40;;;;;;;;;1.00;1.00;;;;;23.10;50.61;101460.41;5040632;28;45639;-81
2022/08/29 01:57:06;;;;;;;;;1.00;1.00;;;;;23.14;50.15;101462.19;5057347;28;45299;-81
2022/08/29 01:59:33;;;;;;;;;1.75;1.00;;;;;23.16;50.47;101463.03;5039186;28;45568;-80
2022/08/29 02:02:04;;;;;;;;;1.00;1.00;;;;;23.19;50.33;101465.75;5057191;28;45692;-81
2022/08/29 02:04:31;;;;;;;;;2.00;1.00;;;;;23.18;50.34;101468.34;5056686;28;45884;-81
2022/08/29 02:06:57;;;;;;;;;1.25;1.25;;;;;23.18;50.38;101461.28;5057200;28;45324;-81
2022/08/29 02:09:23;;;;;;;;;1.00;1.00;;;;;23.16;49.98;101454.25;5041627;28;45579;-81
2022/08/29 02:11:49;;;;;;;;;1.25;1.25;;;;;23.15;50.53;101453.38;5056808;28;45359;-82
2022/08/29 02:14:15;;;;;;;;;0.75;0.75;;;;;23.10;50.40;101449.84;5039089;28;45477;-81
2022/08/29 02:16:41;;;;;;;;;2.00;1.00;;;;;23.03;50.35;101448.06;5062209;28;45320;-81
2022/08/29 02:19:06;;;;;;;;;2.75;1.00;;;;;23.01;51.06;101450.69;5064959;28;45245;-81
2022/08/29 02:21:32;;;;;;;;;2.00;2.00;;;;;22.98;51.14;101442.75;5061677;28;45439;-81
2022/08/29 02:24:01;;;;;;;;;1.00;1.00;;;;;22.98;50.86;101445.41;5057120;28;45273;-81
2022/08/29 02:26:26;;;;;;;;;1.00;1.00;;;;;22.99;51.34;101441.00;5038525;28;45430;-81
2022/08/29 02:28:52;;;;;;;;;1.00;1.00;;;;;22.98;51.27;101447.16;5056497;28;45397;-81
2022/08/29 02:31:22;;;;;;;;;1.50;1.50;;;;;22.96;50.93;101441.88;5056242;28;45929;-81
2022/08/29 02:33:48;;;;;;;;;1.00;1.00;;;;;22.95;51.09;101444.50;5056540;28;45555;-82
2022/08/29 02:36:14;;;;;;;;;2.00;2.00;;;;;22.91;51.14;101438.31;5056667;28;45236;-81
2022/08/29 02:38:39;;;;;;;;;1.00;1.00;;;;;22.85;51.47;101444.47;5056642;28;45331;-80
2022/08/29 02:41:06;;;;;;;;;0.50;0.50;;;;;22.82;51.06;101431.28;5057165;28;45424;-82
2022/08/29 02:43:32;;;;;;;;;1.00;1.00;;;;;22.85;51.37;101440.94;5066056;28;45483;-81
2022/08/29 02:45:58;;;;;;;;;1.00;1.00;;;;;22.85;51.28;101446.22;5063647;28;45352;-80
2022/08/29 02:48:24;;;;;;;;;1.00;1.00;;;;;22.83;51.46;101446.25;5057238;28;45299;-81
2022/08/29 02:50:53;;;;;;;;;0.75;0.75;;;;;22.77;51.43;101430.34;5055918;28;46120;-81
2022/08/29 02:53:21;;;;;;;;;1.75;1.75;;;;;22.76;51.36;101433.00;5056115;28;45834;-81
2022/08/29 02:55:47;;;;;;;;;0.25;0.25;;;;;22.75;51.59;101447.94;5056428;28;45356;-82
2022/08/29 02:58:14;;;;;;;;;1.00;1.00;;;;;22.76;51.64;101438.28;5038213;28;45404;-81
2022/08/29 03:00:41;;;;;;;;;2.00;1.25;;;;;22.78;51.36;101436.53;5055968;28;45454;-81
2022/08/29 03:03:07;;;;;;;;;2.25;1.00;;;;;22.78;51.52;101434.75;5056026;28;45558;-81
2022/08/29 03:05:36;;;;;;;;;1.00;1.00;;;;;22.80;51.71;101440.94;5054786;28;45411;-81
2022/08/29 03:08:05;;;;;;;;;1.00;1.00;;;;;22.80;51.49;101433.00;5061384;28;45558;-81
2022/08/29 03:10:31;;;;;;;;;2.75;1.00;;;;;22.82;51.24;101433.00;5059962;28;46077;-81
2022/08/29 03:12:57;;;;;;;;;1.25;1.00;;;;;22.78;51.66;101424.19;5039597;28;45418;-81
2022/08/29 03:15:23;;;;;;;;;1.00;1.00;;;;;22.78;51.56;101418.91;5056047;28;45311;-81
2022/08/29 03:17:49;;;;;;;;;1.25;1.00;;;;;22.75;52.69;101415.41;5055817;28;45705;-81
2022/08/29 03:20:18;;;;;;;;;2.00;1.00;;;;;22.72;52.11;101426.84;5037636;28;45643;-81
2022/08/29 03:22:45;;;;;;;;;1.00;1.00;;;;;22.70;52.38;101429.44;5037738;28;45686;-81
2022/08/29 03:25:12;;;;;;;;;2.00;0.50;;;;;22.68;52.44;101427.69;5055848;28;45241;-81
2022/08/29 03:27:39;;;;;;;;;2.75;2.00;;;;;22.61;52.64;101426.75;5055939;28;45458;-81
2022/08/29 03:30:07;;;;;;;;;0.75;0.75;;;;;22.61;52.75;101426.75;5055398;28;45409;-81
2022/08/29 03:32:32;;;;;;;;;1.00;1.00;;;;;22.56;52.73;101420.59;5039987;28;45463;-80
2022/08/29 03:34:58;;;;;;;;;0.00;0.00;;;;;22.56;53.22;101428.50;5063472;28;45406;-81
2022/08/29 03:37:25;;;;;;;;;2.75;1.00;;;;;22.53;52.91;101423.22;5059357;28;45413;-81
2022/08/29 03:39:53;;;;;;;;;1.25;1.25;;;;;22.52;53.17;101418.81;5058737;28;45504;-81
2022/08/29 03:42:19;;;;;;;;;1.75;1.75;;;;;22.49;53.04;101422.31;5059163;28;45648;-81
2022/08/29 03:44:45;;;;;;;;;1.00;1.00;;;;;22.46;53.57;101424.06;5059416;28;45469;-81
2022/08/29 03:47:10;;;;;;;;;0.50;0.50;;;;;22.41;53.68;101424.00;5058878;28;45354;-81
2022/08/29 03:49:36;;;;;;;;;1.25;0.75;;;;;22.37;53.68;101422.22;5036707;28;47552;-81
2022/08/29 03:52:03;;;;;;;;;1.00;1.00;;;;;22.35;53.73;101418.69;5038626;28;45458;-81
2022/08/29 03:54:29;;;;;;;;;4.00;1.00;;;;;22.32;53.52;101416.91;5038957;28;45364;-81
2022/08/29 03:56:55;;;;;;;;;1.00;0.00;;;;;22.32;53.90;101421.28;5047560;28;45441;-81
2022/08/29 03:59:21;;;;;;;;;1.75;1.00;;;;;22.32;53.90;101421.28;5048792;28;45669;-81
2022/08/29 04:01:49;;;;;;;;;1.25;1.00;;;;;22.29;54.04;101421.31;5060786;28;45842;-81
2022/08/29 04:07:01;;;;;;;;;2.50;1.00;;;;;22.25;54.41;101434.47;5058111;28;45421;-81
2022/08/29 04:09:28;;;;;;;;;1.00;1.00;;;;;22.20;54.78;101425.63;5040606;28;45541;-81
2022/08/29 04:11:55;;;;;;;;;3.00;2.00;;;;;22.19;54.46;101431.75;5059035;28;45430;-81
2022/08/29 04:14:20;;;;;;;;;2.00;0.50;;;;;22.19;54.24;101437.03;5058682;28;45316;-81
2022/08/29 04:16:48;;;;;;;;;2.00;1.00;;;;;22.19;54.58;101437.03;5059003;28;45553;-81
2022/08/29 04:19:18;;;;;;;;;1.25;1.25;;;;;22.11;54.98;101434.38;5058019;28;45248;-81
2022/08/29 04:21:45;;;;;;;;;1.50;1.50;;;;;22.08;54.86;101423.78;5040496;28;45726;-82
2022/08/29 04:24:11;;;;;;;;;1.75;1.25;;;;;22.07;54.96;101415.88;5062698;28;45402;-82
2022/08/29 04:26:39;;;;;;;;;1.00;1.00;;;;;22.09;55.25;101422.03;5046187;28;45402;-82
2022/08/29 04:29:08;;;;;;;;;2.25;1.25;;;;;22.09;55.18;101419.38;5059304;28;45496;-81
2022/08/29 04:31:35;;;;;;;;;4.50;1.25;;;;;22.05;55.49;101421.13;5057409;28;45538;-81
2022/08/29 04:34:02;;;;;;;;;1.75;1.00;;;;;22.04;55.37;101416.72;5040134;28;45375;-81
2022/08/29 04:36:27;;;;;;;;;2.50;1.00;;;;;22.04;55.33;101418.50;5058776;28;45559;-81
2022/08/29 04:38:54;;;;;;;;;1.25;1.00;;;;;22.01;55.34;101418.47;5058236;28;46743;-80
2022/08/29 04:41:20;;;;;;;;;1.75;1.00;;;;;21.98;55.71;101416.69;5058145;28;45364;-81
2022/08/29 04:43:46;;;;;;;;;1.75;1.75;;;;;21.99;56.00;101425.47;5058323;28;45454;-81
2022/08/29 04:46:16;;;;;;;;;1.00;1.00;;;;;21.99;55.66;101431.66;5056668;28;45580;-80
2022/08/29 04:48:42;;;;;;;;;0.25;0.25;;;;;21.98;55.42;101427.25;5056980;28;45384;-81
2022/08/29 04:51:10;;;;;;;;;2.75;1.00;;;;;21.95;55.56;101425.47;5059816;28;45701;-81
2022/08/29 04:53:36;;;;;;;;;2.00;1.50;;;;;21.96;55.69;101442.16;5060932;28;45327;-81
2022/08/29 04:56:06;;;;;;;;;2.75;2.00;;;;;21.95;55.57;101449.19;5056716;28;45506;-81
2022/08/29 04:58:33;;;;;;;;;3.00;1.50;;;;;21.90;55.55;101447.41;5052872;28;46250;-81
2022/08/29 05:00:59;;;;;;;;;2.00;2.00;;;;;21.92;55.94;101453.56;5058096;28;45642;-80
2022/08/29 05:03:24;;;;;;;;;2.50;1.25;;;;;21.91;55.94;101452.66;5056271;28;45511;-80
2022/08/29 05:06:12;;;;;;;;;0.00;0.00;;;;;21.91;55.60;101455.31;5040162;28;45236;-81
2022/08/29 05:08:40;;;;;;;;;0.50;0.50;;;;;21.86;56.03;101457.03;5057612;28;45407;-80
2022/08/29 05:11:10;;;;;;;;;1.50;1.00;;;;;21.85;56.11;101457.00;5057553;28;45530;-80
2022/08/29 05:13:35;;;;;;;;;3.00;1.25;;;;;21.83;56.35;101450.84;5059126;28;45233;-80
2022/08/29 05:16:12;;;;;;;;;2.00;2.00;;;;;21.84;56.16;101464.06;5063491;28;45669;-80
2022/08/29 05:18:39;;;;;;;;;2.50;1.00;;;;;21.81;56.18;101469.28;5058100;28;45589;-81
2022/08/29 05:21:05;;;;;;;;;1.00;1.00;;;;;21.79;55.97;101465.75;5055306;28;45457;-81
2022/08/29 05:23:30;;;;;;;;;3.25;2.00;;;;;21.83;56.55;101471.91;5056929;28;45308;-81
2022/08/29 05:25:59;;;;;;;;;1.75;1.75;;;;;21.83;56.21;101472.81;5056945;28;45510;-83
2022/08/29 05:28:27;;;;;;;;;1.00;0.50;;;;;21.85;56.29;101479.00;5057113;28;45240;-82
2022/08/29 05:30:54;;;;;;;;;2.00;1.00;;;;;21.87;56.20;101481.63;5054450;28;45747;-81
2022/08/29 05:33:20;;;;;;;;;3.00;1.25;;;;;21.88;56.29;101478.13;5056900;28;45406;-82
2022/08/29 05:35:48;;;;;;;;;2.00;2.00;;;;;21.89;56.32;101483.41;5058389;28;45256;-85
2022/08/29 05:38:14;;;;;;;;;4.25;2.00;;;;;21.91;56.34;101481.66;5057628;28;45541;-81
2022/08/29 05:40:41;;;;;;;;;4.00;3.00;;;;;21.94;56.33;101486.97;5055141;28;45337;-80
2022/08/29 05:43:09;;;;;;;;;3.25;2.25;;;;;21.97;56.38;101486.13;5029924;28;45458;-82
2022/08/29 05:45:36;;;;;;;;;3.00;3.00;;;;;22.02;55.90;101491.41;5057969;28;45585;-82
2022/08/29 05:48:06;;;;;;;;;2.00;2.00;;;;;22.03;55.74;101493.19;5057651;28;46411;-82
2022/08/29 05:50:45;;;;;;;;;1.75;1.75;;;;;22.02;55.79;101489.69;5046579;28;45839;-84
2022/08/29 05:53:13;;;;;;;;;1.00;1.00;;;;;22.03;55.63;101498.47;5037913;28;45255;-83
2022/08/29 05:55:40;;;;;;;;;3.00;2.00;;;;;22.07;55.65;101509.06;5041337;28;45838;-84
2022/08/29 05:58:07;;;;;;;;;2.50;2.50;;;;;22.03;55.60;101504.59;5058697;28;45442;-85
2022/08/29 06:00:33;;;;;;;;;1.50;1.50;;;;;22.06;55.91;101506.41;5054493;28;45358;-85
2022/08/29 06:02:58;;;;;;;;;3.00;3.00;;;;;22.06;55.80;101495.88;5053128;28;45422;-80
2022/08/29 06:05:35;;;;;;;;;0.25;0.00;;;;;22.04;55.60;101498.47;5055239;28;45351;-87
2022/08/29 06:08:03;;;;;;;;;2.25;1.00;;;;;22.10;55.76;101497.63;5063776;28;46242;-85
2022/08/29 06:10:29;;;;;;;;;2.50;1.75;;;;;22.11;55.51;101497.66;5038039;28;45580;-84
2022/08/29 06:12:55;;;;;;;;;3.50;2.25;;;;;22.12;55.64;101498.53;5054113;28;45373;-83
2022/08/29 06:15:21;;;;;;;;;1.75;1.75;;;;;22.15;55.36;101500.31;5046607;28;45304;-82
2022/08/29 06:17:47;;;;;;;;;4.50;2.50;;;;;22.13;55.36;101497.66;5053261;28;45490;-80
2022/08/29 06:20:13;;;;;;;;;2.00;1.50;;;;;22.14;55.42;101502.06;5047585;28;45391;-83
2022/08/29 06:22:39;;;;;;;;;3.25;2.75;;;;;22.15;54.99;101500.31;5054371;28;45468;-82
2022/08/29 06:25:06;;;;;;;;;3.00;2.00;;;;;22.14;55.36;101504.72;5055270;28;45339;-81
2022/08/29 06:27:31;;;;;;;;;2.75;1.25;;;;;22.15;55.48;101506.47;5056730;28;45588;-84
2022/08/29 06:29:57;;;;;;;;;2.50;2.00;;;;;22.18;55.39;101517.06;5055592;28;45281;-83
2022/08/29 06:32:23;;;;;;;;;0.50;0.50;;;;;22.20;55.76;101517.06;5061009;28;45487;-82
2022/08/29 06:34:49;;;;;;;;;1.75;1.75;;;;;22.20;55.66;101524.97;5058712;28;45366;-82
2022/08/29 06:37:15;;;;;;;;;2.75;1.25;;;;;22.19;55.76;101525.84;5061702;28;45383;-86
2022/08/29 06:39:42;;;;;;;;;1.00;1.00;;;;;22.19;55.76;101525.84;5058833;28;45391;-83
2022/08/29 06:42:08;;;;;;;;;2.25;2.00;;;;;22.16;55.62;101517.91;5053838;28;45560;-83
2022/08/29 06:44:34;;;;;;;;;2.00;2.00;;;;;22.20;55.59;101517.94;5056137;28;45403;-82
2022/08/29 06:46:59;;;;;;;;;2.25;2.00;;;;;22.18;55.48;101522.34;5049553;28;47275;-80
2022/08/29 06:49:26;;;;;;;;;2.00;2.00;;;;;22.15;55.65;101522.31;5055903;28;45466;-83
2022/08/29 06:51:52;;;;;;;;;1.00;1.00;;;;;22.17;55.60;101524.94;5061140;28;45451;-82
2022/08/29 06:54:20;;;;;;;;;1.25;1.25;;;;;22.17;55.76;101514.41;5055517;28;46001;-82
2022/08/29 06:56:46;;;;;;;;;1.00;1.00;;;;;22.17;55.64;101519.66;5055134;28;45419;-81
2022/08/29 06:59:12;;;;;;;;;3.75;1.00;;;;;22.16;55.74;101524.06;5050546;28;46015;-82
2022/08/29 07:01:41;;;;;;;;;0.75;0.75;;;;;22.15;56.07;101518.78;5051534;28;45368;-82
2022/08/29 07:04:07;;;;;;;;;1.00;1.00;;;;;22.12;56.05;101514.38;5056394;28;45561;-86
2022/08/29 07:06:33;;;;;;;;;2.50;1.00;;;;;22.16;56.13;101523.19;5052906;28;45452;-86
2022/08/29 07:08:59;;;;;;;;;2.00;1.00;;;;;22.18;56.35;101524.06;5055616;28;45264;-83
2022/08/29 07:11:28;;;;;;;;;1.00;1.00;;;;;22.21;56.10;101518.84;5038271;28;45355;-84
2022/08/29 07:14:00;;;;;;;;;2.00;1.25;;;;;22.18;55.85;101518.81;5059105;28;45523;-87
2022/08/29 07:16:27;;;;;;;;;4.25;1.75;;;;;22.18;56.22;101519.69;5072304;28;45975;-86
2022/08/29 07:18:56;;;;;;;;;4.75;1.50;;;;;22.21;56.17;101524.97;5061377;28;45446;-86
2022/08/29 07:21:25;;;;;;;;;1.25;1.25;;;;;22.24;55.84;101521.50;5043044;28;45394;-83
2022/08/29 07:23:52;;;;;;;;;1.50;1.50;;;;;22.23;56.09;101517.97;5065758;28;45161;-85
2022/08/29 07:26:22;;;;;;;;;1.00;1.00;;;;;22.27;56.36;101525.03;5059196;28;45473;-80
2022/08/29 07:28:50;;;;;;;;;0.75;0.75;;;;;22.26;56.27;101525.91;5056220;28;45764;-87
2022/08/29 07:31:16;;;;;;;;;2.00;1.00;;;;;22.26;56.25;101523.28;5059932;28;45365;-80
2022/08/29 07:33:41;;;;;;;;;2.00;2.00;;;;;22.22;56.65;101521.47;5058907;28;45618;-80
2022/08/29 07:36:07;;;;;;;;;2.75;1.00;;;;;22.19;56.92;101526.72;5057861;28;45454;-85
2022/08/29 07:38:36;;;;;;;;;4.00;2.25;;;;;22.17;57.81;101528.47;5058272;28;45581;-86
2022/08/29 07:41:13;;;;;;;;;5.00;2.50;;;;;22.21;58.06;101521.47;5060050;28;45596;-86
2022/08/29 07:43:39;;;;;;;;;2.00;1.00;;;;;22.25;57.39;101529.41;5060633;28;45346;-82
2022/08/29 07:46:11;;;;;;;;;3.00;2.00;;;;;22.25;57.12;101525.88;5057567;28;46156;-81
2022/08/29 07:48:37;;;;;;;;;1.75;1.75;;;;;22.28;57.38;101525.91;5062643;28;45414;-81
2022/08/29 07:51:10;;;;;;;;;2.50;1.75;;;;;22.28;56.94;101528.56;5049548;28;45315;-83
2022/08/29 07:53:36;;;;;;;;;12.25;10.25;;;;;22.27;59.12;101522.41;5061051;28;45522;-81
2022/08/29 07:56:16;;;;;;;;;4.75;3.25;;;;;22.35;58.30;101530.34;5057196;28;45257;-81
2022/08/29 07:58:43;;;;;;;;;3.25;2.25;;;;;22.39;59.13;101526.00;5057384;28;45807;-81
2022/08/29 08:01:09;;;;;;;;;3.25;3.25;;;;;22.41;58.57;101532.19;5057599;28;45351;-81
2022/08/29 08:03:35;;;;;;;;;7.00;5.00;;;;;22.44;60.37;101532.22;5058676;28;45479;-81
2022/08/29 08:06:02;;;;;;;;;3.00;2.75;;;;;22.46;60.26;101519.94;5059053;28;46104;-79
2022/08/29 08:08:28;;;;;;;;;3.75;3.00;;;;;22.54;58.68;101522.63;5050420;28;45733;-84
2022/08/29 08:10:54;;;;;;;;;2.25;2.00;;;;;22.57;58.86;101514.69;5053295;28;45293;-84
2022/08/29 08:13:20;;;;;;;;;2.00;2.00;;;;;22.63;59.13;101516.50;5064282;28;45332;-83
2022/08/29 08:15:46;;;;;;;;;3.75;3.00;;;;;22.68;58.45;101520.06;5055493;28;47062;-82
2022/08/29 08:18:12;;;;;;;;;2.00;2.00;;;;;22.73;58.06;101513.06;5058066;28;45394;-82
2022/08/29 08:20:38;;;;;;;;;2.00;2.00;;;;;22.77;57.79;101516.59;5054128;28;45477;-83
2022/08/29 08:23:04;;;;;;;;;4.25;1.75;;;;;22.81;57.15;101503.44;5043957;28;45439;-82
2022/08/29 08:25:29;;;;;;;;;2.00;2.00;;;;;22.87;56.22;101507.84;5056185;28;45490;-83
2022/08/29 08:27:55;;;;;;;;;3.00;1.00;;;;;22.87;56.21;101500.81;5057122;28;45431;-83
2022/08/29 08:30:21;;;;;;;;;2.75;2.50;;;;;22.92;56.85;101502.59;5039391;28;45787;-83
2022/08/29 08:32:47;;;;;;;;;3.25;1.75;;;;;22.95;56.11;101498.19;5057606;28;45352;-86
2022/08/29 08:35:15;;;;;;;;;1.25;1.25;;;;;23.02;55.55;101501.75;5052540;28;47661;-88
2022/08/29 08:37:41;;;;;;;;;2.50;1.50;;;;;23.06;55.82;101507.94;5059682;28;45392;-85
2022/08/29 08:40:15;;;;;;;;;2.00;2.00;;;;;23.10;55.43;101497.38;5057303;28;45471;-80
2022/08/29 08:42:43;;;;;;;;;1.50;1.50;;;;;23.10;54.45;101489.47;5051915;28;45526;-81
2022/08/29 08:45:12;;;;;;;;;3.75;1.00;;;;;23.10;54.46;101500.03;5050929;28;46147;-79
2022/08/29 08:47:44;;;;;;;;;2.00;2.00;;;;;23.14;54.38;101495.63;5052342;28;45651;-80
2022/08/29 08:50:19;;;;;;;;;1.25;1.00;;;;;23.15;54.75;101506.22;5053726;28;45427;-79
2022/08/29 08:52:52;;;;;;;;;5.50;3.75;;;;;23.17;54.55;101509.72;5056738;28;45312;-79
2022/08/29 08:55:27;;;;;;;;;4.75;2.00;;;;;23.21;54.54;101515.06;5054517;28;46209;-79
2022/08/29 08:58:11;;;;;;;;;3.50;1.50;;;;;23.24;54.22;101515.06;5056493;28;45422;-78
2022/08/29 09:01:00;;;;;;;;;4.00;1.75;;;;;23.26;54.52;101510.69;5057223;28;45340;-79
2022/08/29 09:04:04;;;;;;;;;2.00;2.00;;;;;23.30;54.53;101510.69;5052379;28;45470;-77
2022/08/29 09:06:49;;;;;;;;;4.50;2.00;;;;;23.34;54.33;101509.81;5057714;28;46228;-78
2022/08/29 09:09:42;;;;;;;;;3.75;2.75;;;;;23.41;54.04;101516.00;5054867;28;45821;-80
2022/08/29 09:12:24;;;;;;;;;1.25;1.25;;;;;23.47;54.12;101513.38;5056892;28;45538;-84
2022/08/29 09:15:07;;;;;;;;;2.25;2.25;;;;;23.54;54.08;101522.19;5056582;28;45555;-77
2022/08/29 09:17:41;;;;;;;;;3.75;2.25;;;;;23.62;54.07;101512.53;5050349;28;46255;-85
2022/08/29 09:20:12;;;;;;;;;3.75;3.00;;;;;23.73;53.70;101515.19;5059957;28;45370;-80
2022/08/29 09:22:40;;;;;;;;;3.25;3.00;;;;;23.85;52.86;101516.06;5057494;28;45505;-84
2022/08/29 09:25:11;;;;;;;;;3.25;3.00;;;;;23.93;52.57;101507.28;5058171;28;45408;-85
2022/08/29 09:27:37;;;;;;;;;4.00;3.00;;;;;23.98;54.12;101511.69;5040860;28;47814;-85
2022/08/29 09:30:25;;;;;;;;;6.00;4.25;;;;;24.05;55.28;101501.13;5063213;28;45497;-84
2022/08/29 09:33:06;;;;;;;;;3.00;2.50;;;;;24.14;53.77;101516.13;5055562;28;45451;-80
2022/08/29 09:35:50;;;;;;;;;3.00;3.00;;;;;24.17;53.37;101509.94;5043190;28;45495;-84
2022/08/29 09:38:26;;;;;;;;;4.50;4.00;;;;;24.15;52.46;101504.66;5036325;28;45485;-82
2022/08/29 09:41:01;;;;;;;;;3.00;3.00;;;;;24.05;52.77;101501.13;5055968;28;46449;-83
2022/08/29 09:43:44;;;;;;;;;3.00;3.00;;;;;24.07;53.63;101509.94;5057407;28;46583;-82
2022/08/29 09:46:11;;;;;;;;;3.00;3.00;;;;;24.09;53.00;101513.47;5062847;28;45364;-83
2022/08/29 09:49:01;;;;;;;;;3.75;2.00;;;;;24.06;54.27;101508.19;5046407;28;46702;-85
2022/08/29 09:51:33;;;;;;;;;4.50;2.75;;;;;24.06;54.55;101508.19;5037749;28;45397;-84
2022/08/29 09:54:30;;;;;;;;;3.50;2.75;;;;;24.07;54.35;101506.44;5047655;28;45331;-82
2022/08/29 09:57:23;;;;;;;;;2.00;2.00;;;;;24.09;54.34;101489.66;5060472;28;45514;-83
2022/08/29 10:00:15;;;;;;;;;5.00;4.00;;;;;24.03;54.66;101478.22;5038227;28;45415;-83
2022/08/29 10:02:41;;;;;;;;;4.50;2.75;;;;;24.12;54.60;101486.13;5035144;28;45785;-82
2022/08/29 10:05:11;;;;;;;;;3.25;3.25;;;;;24.11;53.95;101490.56;5055178;28;45360;-83
2022/08/29 10:07:47;;;;;;;;;4.50;3.00;;;;;24.16;53.56;101494.94;5052703;28;45560;-82
2022/08/29 10:10:22;;;;;;;;;4.00;3.00;;;;;24.09;53.66;101487.03;5054584;28;45618;-81
2022/08/29 10:13:19;;;;;;;;;4.25;2.00;;;;;24.01;54.02;101480.88;5047682;28;45644;-86
2022/08/29 10:16:07;;;;;;;;;5.00;4.00;;;;;24.13;55.69;101494.97;5019792;28;45367;-84
2022/08/29 10:18:57;;;;;;;;;5.25;4.00;;;;;24.14;55.42;101491.41;5040809;28;45533;-89
2022/08/29 10:21:32;;;;;;;;;4.00;2.50;;;;;24.17;56.11;101487.03;5048722;28;46938;-82
2022/08/29 10:24:27;;;;;;;;;4.00;3.50;;;;;24.11;56.55;101466.75;5043579;28;45643;-81
2022/08/29 10:27:17;;;;;;;;;4.00;3.00;;;;;24.25;54.43;101487.00;5038150;28;45515;-88
2022/08/29 10:30:04;;;;;;;;;4.25;2.75;;;;;24.30;55.29;101490.53;5038721;28;45527;-86
2022/08/29 10:33:12;;;;;;;;;4.00;3.00;;;;;24.31;54.31;101468.47;5037780;28;45423;-86
2022/08/29 10:35:48;;;;;;;;;5.50;4.50;;;;;24.39;55.08;101471.97;5036481;28;45706;-84
2022/08/29 10:38:51;;;;;;;;;3.00;3.00;;;;;24.44;54.26;101479.03;5018691;28;45396;-85
2022/08/29 10:41:39;;;;;;;;;4.50;3.00;;;;;24.48;54.27;101473.75;5046028;28;45525;-81
2022/08/29 10:44:30;;;;;;;;;4.00;3.75;;;;;24.52;54.40;101475.47;5037340;28;45679;-82
2022/08/29 10:46:55;;;;;;;;;5.00;3.25;;;;;24.53;54.46;101471.94;5042410;28;45526;-84
2022/08/29 10:49:37;;;;;;;;;5.25;3.75;;;;;24.57;54.61;101470.16;5021171;28;45359;-82
2022/08/29 10:52:15;;;;;;;;;5.50;4.50;;;;;24.61;53.93;101468.41;5043395;28;45251;-84
2022/08/29 10:54:59;;;;;;;;;3.75;3.00;;;;;24.66;54.32;101466.63;5042656;28;46848;-80
2022/08/29 10:57:40;;;;;;;;;3.00;2.00;;;;;24.66;55.50;101459.56;5056574;28;45471;-83
2022/08/29 11:00:19;;;;;;;;;6.00;4.75;;;;;24.73;54.36;101463.97;5048458;28;45213;-85
2022/08/29 11:03:00;;;;;;;;;3.25;3.25;;;;;24.78;54.36;101455.16;5053574;28;45402;-82
2022/08/29 11:05:37;;;;;;;;;5.75;5.00;;;;;24.79;53.95;101456.88;5053530;28;46066;-85
2022/08/29 11:08:33;;;;;;;;;3.00;3.00;;;;;24.86;54.02;101456.84;5052635;28;45881;-84
2022/08/29 11:10:58;;;;;;;;;5.25;2.75;;;;;24.91;53.75;101458.63;5057482;28;45473;-83
2022/08/29 11:13:39;;;;;;;;;5.00;5.00;;;;;24.98;53.65;101455.94;5060052;28;45343;-82
2022/08/29 11:16:57;;;;;;;;;4.50;4.50;;;;;25.00;53.52;101455.91;5058316;28;45413;-82
2022/08/29 11:19:29;;;;;;;;;4.75;4.00;;;;;25.05;53.41;101454.13;4972704;28;46301;-82
2022/08/29 11:22:01;;;;;;;;;5.00;3.50;;;;;25.02;52.59;101451.50;5057546;28;45345;-85
2022/08/29 11:24:30;;;;;;;;;2.75;2.75;;;;;25.06;52.64;101455.88;5059612;28;45457;-85
2022/08/29 11:27:31;;;;;;;;;4.00;4.00;;;;;25.13;52.10;101451.41;5056062;28;46744;-85
2022/08/29 11:30:07;;;;;;;;;4.00;4.00;;;;;25.14;52.32;101439.94;5065102;28;45564;-84
2022/08/29 11:32:44;;;;;;;;;4.25;4.00;;;;;25.19;51.87;101444.31;5045987;28;45419;-87
2022/08/29 11:35:59;;;;;;;;;5.75;4.00;;;;;25.21;52.39;101433.72;5057093;28;45315;-86
2022/08/29 11:38:43;;;;;;;;;4.00;4.00;;;;;25.32;51.70;101439.81;5060484;28;46932;-87
2022/08/29 11:41:18;;;;;;;;;4.75;3.75;;;;;25.38;51.52;101441.53;5063369;28;45852;-87
2022/08/29 11:43:47;;;;;;;;;6.75;6.00;;;;;25.42;51.11;101439.81;5063496;28;45218;-88
2022/08/29 11:46:14;;;;;;;;;5.00;4.50;;;;;25.49;51.70;101446.81;5059469;28;45415;-86